首页
METAR-TAF:

METAR-TAF

机场 :

Land O' Lakes, 威斯康辛州, 美国

纬度: 46-09-14N, 经度: 089-12-43W, 海拔: 520米

当前天气观测

该预报发布于9小时和40分钟前的05:35 UTC
风速6节,风向南转西南
温度 21°C
湿度 94%
气压 1009 hPa
能見度: 16.1公里
多云层高于1100英尺
多云层高于1700英尺

METAR: KLNL 220535Z AUTO 20006KT 10SM BKN011 BKN017 21/20 A2981 RMK AO2 T02050200

时间: 10:15 (15:15 UTC)


TAF: 丢失

超过4000个机场的气象观测和天气预报(METAR&TAF报告)。

可查询的气象台以黄色和红色小点在地图上表示。

将鼠标移到小点上方,可查看气象台名称。

然后点击查看天气观测和预报。

如需切换地图:点击带黑十字的绿色按钮放大地图;点击带横线的绿色按钮缩小地图;或者点击绿色箭头查看邻近地区的地图。


METAR-TAF: